createdAt,value
2022-10-28T00:01:13.597Z,10.22
2022-10-28T00:03:56.131Z,10.24
2022-10-28T00:06:35.040Z,10.09
2022-10-28T00:09:05.641Z,10.26
2022-10-28T00:11:51.629Z,10.23
2022-10-28T00:14:27.954Z,10.17
2022-10-28T00:16:54.934Z,10.16
2022-10-28T00:19:50.154Z,10.14
2022-10-28T00:22:25.333Z,10.07
2022-10-28T00:24:53.349Z,9.98
2022-10-28T00:27:21.349Z,9.98
2022-10-28T00:29:48.500Z,10.05
2022-10-28T00:32:17.530Z,10.10
2022-10-28T00:34:45.781Z,10.03
2022-10-28T00:37:34.227Z,10.07
2022-10-28T00:40:19.446Z,10.05
2022-10-28T00:42:52.139Z,9.95
2022-10-28T00:45:20.437Z,9.95
2022-10-28T00:48:04.575Z,9.81
2022-10-28T00:50:52.118Z,9.77
2022-10-28T00:53:33.306Z,9.76
2022-10-28T00:56:03.690Z,9.38
2022-10-28T00:58:31.438Z,9.37
2022-10-28T01:00:58.515Z,9.43
2022-10-28T01:03:30.843Z,9.27
2022-10-28T01:06:01.396Z,9.24
2022-10-28T01:08:28.708Z,9.22
2022-10-28T01:11:14.029Z,9.38
2022-10-28T01:13:55.877Z,9.49
2022-10-28T01:16:25.739Z,9.61
2022-10-28T01:19:48.389Z,9.53
2022-10-28T01:25:07.164Z,9.54
2022-10-28T01:27:55.758Z,9.48
2022-10-28T01:31:01.038Z,9.35
2022-10-28T01:33:31.137Z,9.25
2022-10-28T01:36:35.025Z,9.24
2022-10-28T01:39:14.198Z,9.23
2022-10-28T01:42:22.716Z,9.17
2022-10-28T01:45:03.538Z,9.32
2022-10-28T01:47:57.866Z,9.26
2022-10-28T01:50:43.373Z,9.38
2022-10-28T01:53:15.277Z,9.09
2022-10-28T01:56:05.763Z,9.06
2022-10-28T01:58:43.702Z,9.00
2022-10-28T02:01:13.574Z,8.96
2022-10-28T02:03:57.161Z,8.93
2022-10-28T02:07:11.014Z,8.98
2022-10-28T02:10:16.787Z,8.78
2022-10-28T02:12:52.496Z,8.76
2022-10-28T02:15:47.222Z,8.88
2022-10-28T02:18:14.232Z,8.88
2022-10-28T02:21:01.915Z,8.89
2022-10-28T02:23:52.993Z,8.94
2022-10-28T02:26:47.259Z,9.13
2022-10-28T02:29:36.004Z,9.29
2022-10-28T02:32:09.303Z,9.21
2022-10-28T02:34:47.903Z,9.20
2022-10-28T02:37:42.103Z,9.08
2022-10-28T02:40:39.708Z,9.13
2022-10-28T02:43:16.074Z,9.10
2022-10-28T02:45:48.959Z,9.10
2022-10-28T02:48:27.726Z,9.12
2022-10-28T02:51:13.757Z,9.18
2022-10-28T02:54:05.149Z,9.32
2022-10-28T02:56:38.533Z,9.41
2022-10-28T02:59:14.097Z,9.54
2022-10-28T03:01:53.516Z,9.53
2022-10-28T03:04:37.892Z,9.47
2022-10-28T03:07:10.017Z,9.28
2022-10-28T03:09:58.659Z,9.24
2022-10-28T03:12:25.702Z,9.13
2022-10-28T03:14:59.636Z,8.97
2022-10-28T03:17:33.774Z,8.89
2022-10-28T03:20:01.723Z,8.91
2022-10-28T03:22:31.735Z,8.84
2022-10-28T03:25:07.099Z,8.86
2022-10-28T03:27:33.995Z,9.02
2022-10-28T03:30:03.103Z,9.06
2022-10-28T03:32:30.075Z,9.05
2022-10-28T03:35:02.127Z,9.03
2022-10-28T03:37:51.750Z,9.05
2022-10-28T03:40:26.039Z,9.22
2022-10-28T03:43:00.315Z,9.19
2022-10-28T03:48:03.328Z,8.91
2022-10-28T03:50:31.360Z,8.84
2022-10-28T03:53:01.702Z,8.78
2022-10-28T03:55:28.688Z,8.94
2022-10-28T03:57:55.945Z,8.90
2022-10-28T04:00:25.355Z,8.95
2022-10-28T04:02:53.576Z,8.85
2022-10-28T04:05:23.036Z,8.90
2022-10-28T04:07:55.237Z,9.22
2022-10-28T04:10:22.425Z,9.16
2022-10-28T04:13:00.748Z,8.87
2022-10-28T04:15:28.734Z,8.80
2022-10-28T04:17:55.734Z,8.71
2022-10-28T04:20:24.178Z,8.63
2022-10-28T04:22:57.872Z,8.57
2022-10-28T04:25:39.361Z,8.57
2022-10-28T04:28:07.393Z,8.56
2022-10-28T04:30:36.351Z,8.67
2022-10-28T04:33:12.936Z,8.87
2022-10-28T04:35:45.583Z,8.98
2022-10-28T04:38:14.334Z,8.90
2022-10-28T04:40:49.428Z,8.87
2022-10-28T04:43:17.039Z,8.86
2022-10-28T04:45:47.029Z,8.66
2022-10-28T04:48:15.516Z,8.64
2022-10-28T04:50:46.790Z,8.76
2022-10-28T04:53:14.814Z,8.71
2022-10-28T04:55:41.944Z,8.69
2022-10-28T04:58:10.129Z,8.85
2022-10-28T05:00:40.344Z,8.76
2022-10-28T05:03:07.670Z,8.85
2022-10-28T05:05:37.719Z,8.94
2022-10-28T05:08:07.144Z,8.89
2022-10-28T05:10:34.286Z,8.80
2022-10-28T05:13:01.333Z,8.79
2022-10-28T05:15:31.525Z,8.57
2022-10-28T05:18:00.622Z,8.66
2022-10-28T05:20:31.613Z,8.54
2022-10-28T05:23:00.642Z,8.65
2022-10-28T05:25:35.109Z,8.67
2022-10-28T05:28:02.164Z,8.62
2022-10-28T05:30:30.210Z,8.58
2022-10-28T05:33:02.644Z,8.58
2022-10-28T05:35:31.137Z,8.53
2022-10-28T05:37:58.476Z,8.59
2022-10-28T05:40:25.973Z,8.69
2022-10-28T05:42:58.221Z,8.84
2022-10-28T05:45:31.875Z,8.89
2022-10-28T05:48:04.746Z,9.06
2022-10-28T05:50:37.800Z,9.22
2022-10-28T05:53:04.829Z,9.28
2022-10-28T05:55:35.553Z,9.27
2022-10-28T05:58:03.440Z,9.38
2022-10-28T06:00:33.903Z,9.39
2022-10-28T06:03:13.437Z,9.44
2022-10-28T06:05:44.954Z,9.32
2022-10-28T06:08:15.344Z,9.44
2022-10-28T06:10:49.720Z,9.56
2022-10-28T06:13:23.900Z,9.60
2022-10-28T06:16:03.006Z,9.73
2022-10-28T06:18:34.110Z,9.77
2022-10-28T06:21:03.093Z,9.82
2022-10-28T06:23:32.091Z,9.85
2022-10-28T06:26:07.697Z,9.85
2022-10-28T06:28:34.903Z,9.98
2022-10-28T06:31:07.499Z,10.00
2022-10-28T06:33:36.707Z,10.12
2022-10-28T06:36:05.030Z,10.21
2022-10-28T06:38:32.151Z,10.26
2022-10-28T06:40:59.557Z,10.34
2022-10-28T06:43:34.808Z,10.41
2022-10-28T06:46:10.788Z,10.50
2022-10-28T06:48:45.382Z,10.56
2022-10-28T06:51:14.921Z,10.68
2022-10-28T06:53:43.839Z,10.82
2022-10-28T06:56:11.298Z,10.76
2022-10-28T06:58:41.364Z,10.93
2022-10-28T07:01:18.681Z,11.02
2022-10-28T07:03:47.736Z,11.12
2022-10-28T07:06:17.547Z,11.16
2022-10-28T07:08:45.528Z,11.31
2022-10-28T07:11:24.571Z,11.40
2022-10-28T07:14:05.873Z,11.51
2022-10-28T07:16:34.991Z,11.51
2022-10-28T07:19:03.174Z,11.52
2022-10-28T07:21:33.478Z,11.62
2022-10-28T07:24:01.824Z,11.71
2022-10-28T07:26:37.144Z,11.81
2022-10-28T07:29:06.150Z,11.87
2022-10-28T07:31:35.134Z,11.98
2022-10-28T07:34:02.306Z,12.18
2022-10-28T07:36:32.323Z,12.30
2022-10-28T07:38:59.563Z,12.43
2022-10-28T07:41:26.662Z,12.57
2022-10-28T07:44:07.243Z,12.66
2022-10-28T07:46:37.309Z,12.91
2022-10-28T07:49:30.211Z,13.02
2022-10-28T07:51:57.460Z,13.14
2022-10-28T07:54:24.817Z,13.35
2022-10-28T07:56:51.729Z,13.51
2022-10-28T07:59:25.819Z,13.68
2022-10-28T08:01:55.554Z,13.84
2022-10-28T08:04:23.835Z,13.96
2022-10-28T08:09:50.199Z,14.20
2022-10-28T08:12:17.365Z,14.38
2022-10-28T08:14:44.332Z,14.41
2022-10-28T08:17:13.380Z,14.51
2022-10-28T08:19:42.522Z,14.63
2022-10-28T08:22:11.460Z,14.75
2022-10-28T08:24:39.466Z,14.88
2022-10-28T08:27:08.424Z,14.99
2022-10-28T08:29:35.454Z,15.16
2022-10-28T08:32:08.697Z,15.27
2022-10-28T08:34:40.791Z,15.39
2022-10-28T08:37:16.659Z,15.54
2022-10-28T08:39:44.873Z,15.62
2022-10-28T08:42:27.798Z,16.06
2022-10-28T08:45:38.301Z,16.30
2022-10-28T08:48:28.500Z,16.39
2022-10-28T08:51:22.787Z,16.70
2022-10-28T08:53:58.657Z,16.52
2022-10-28T08:56:49.361Z,16.51
2022-10-28T08:59:28.592Z,16.28
2022-10-28T09:02:26.831Z,16.09
2022-10-28T09:05:15.360Z,16.21
2022-10-28T09:07:42.369Z,16.50
2022-10-28T09:10:14.859Z,16.75
2022-10-28T09:13:10.888Z,17.06
2022-10-28T09:16:12.414Z,17.01
2022-10-28T09:19:10.783Z,17.91
2022-10-28T09:22:19.968Z,19.45
2022-10-28T09:25:23.394Z,20.33
2022-10-28T09:28:20.352Z,20.78
2022-10-28T09:31:02.523Z,20.75
2022-10-28T09:33:52.182Z,21.10
2022-10-28T09:36:27.808Z,21.87
2022-10-28T09:39:05.647Z,22.74
2022-10-28T09:41:39.124Z,21.94
2022-10-28T09:44:16.055Z,22.89
2022-10-28T09:46:47.124Z,23.43
2022-10-28T09:49:21.238Z,24.11
2022-10-28T09:51:55.040Z,24.76
2022-10-28T09:54:36.356Z,25.26
2022-10-28T09:57:04.536Z,24.61
2022-10-28T09:59:32.090Z,23.19
2022-10-28T10:02:01.373Z,23.74
2022-10-28T10:04:31.636Z,24.16
2022-10-28T10:07:07.991Z,23.53
2022-10-28T10:09:38.921Z,24.07
2022-10-28T10:12:07.976Z,23.74
2022-10-28T10:14:41.050Z,23.72
2022-10-28T10:17:22.278Z,22.93
2022-10-28T10:20:01.556Z,22.06
2022-10-28T10:22:35.613Z,21.66
2022-10-28T10:25:21.804Z,21.53
2022-10-28T10:28:16.659Z,22.08
2022-10-28T10:30:51.736Z,22.50
2022-10-28T10:33:22.561Z,22.71
2022-10-28T10:36:05.604Z,23.04
2022-10-28T10:38:33.137Z,23.26
2022-10-28T10:41:06.134Z,24.54
2022-10-28T10:43:36.333Z,25.06
2022-10-28T10:46:33.298Z,24.64
2022-10-28T10:49:14.411Z,25.06
2022-10-28T10:51:53.148Z,25.42
2022-10-28T10:54:21.351Z,25.79
2022-10-28T10:56:48.633Z,24.88
2022-10-28T10:59:27.745Z,25.09
2022-10-28T11:01:58.056Z,24.25
2022-10-28T11:04:30.420Z,24.01
2022-10-28T11:07:03.949Z,24.29
2022-10-28T11:09:36.521Z,24.93
2022-10-28T11:12:28.424Z,25.55
2022-10-28T11:15:21.923Z,26.70
2022-10-28T11:18:05.229Z,26.49
2022-10-28T11:20:44.243Z,27.06
2022-10-28T11:23:45.232Z,26.89
2022-10-28T11:26:16.511Z,26.59
2022-10-28T11:29:08.304Z,27.50
2022-10-28T11:32:16.243Z,26.72
2022-10-28T11:35:19.690Z,26.60
2022-10-28T11:38:12.185Z,26.67
2022-10-28T11:41:09.718Z,27.42
2022-10-28T11:43:59.653Z,27.53
2022-10-28T11:46:53.907Z,27.59
2022-10-28T11:49:41.204Z,26.95
2022-10-28T11:52:21.532Z,26.68
2022-10-28T11:55:15.935Z,26.81
2022-10-28T11:57:58.346Z,25.98
2022-10-28T12:01:03.680Z,26.20
2022-10-28T12:04:09.245Z,25.05
2022-10-28T12:06:43.532Z,25.62
2022-10-28T12:09:51.043Z,26.22
2022-10-28T12:12:23.180Z,25.91
2022-10-28T12:15:07.034Z,25.78
2022-10-28T12:17:55.907Z,26.18
2022-10-28T12:20:46.476Z,26.54
2022-10-28T12:23:17.877Z,26.06
2022-10-28T12:25:50.505Z,26.03
2022-10-28T12:28:43.965Z,25.68
2022-10-28T12:31:20.955Z,26.24
2022-10-28T12:34:01.119Z,27.54
2022-10-28T12:36:50.041Z,26.38
2022-10-28T12:39:38.937Z,26.21
2022-10-28T12:42:26.555Z,26.19
2022-10-28T12:45:00.905Z,25.07
2022-10-28T12:47:56.191Z,25.44
2022-10-28T12:50:40.604Z,26.20
2022-10-28T12:53:32.565Z,25.85
2022-10-28T12:56:01.855Z,25.89
2022-10-28T12:58:42.279Z,25.45
2022-10-28T13:01:21.844Z,26.39
2022-10-28T13:03:51.708Z,26.42
2022-10-28T13:06:41.944Z,25.81
2022-10-28T13:09:52.140Z,26.48
2022-10-28T13:12:54.891Z,26.60
2022-10-28T13:15:51.691Z,25.79
2022-10-28T13:18:28.463Z,24.97
2022-10-28T13:21:05.431Z,25.76
2022-10-28T13:23:44.029Z,25.17
2022-10-28T13:26:42.585Z,25.05
2022-10-28T13:29:35.116Z,24.83
2022-10-28T13:32:41.835Z,25.29
2022-10-28T13:35:22.660Z,24.67
2022-10-28T13:37:54.894Z,24.42
2022-10-28T13:40:38.073Z,23.74
2022-10-28T13:43:20.148Z,24.13
2022-10-28T13:46:17.154Z,25.22
2022-10-28T13:48:47.066Z,25.68
2022-10-28T13:51:15.074Z,23.94
2022-10-28T13:53:57.198Z,24.44
2022-10-28T13:56:38.089Z,24.50
2022-10-28T13:59:28.112Z,24.73
2022-10-28T14:02:34.605Z,25.19
2022-10-28T14:05:14.619Z,25.56
2022-10-28T14:08:26.290Z,25.59
2022-10-28T14:11:05.480Z,24.96
2022-10-28T14:13:49.578Z,24.56
2022-10-28T14:16:46.034Z,24.42
2022-10-28T14:19:33.416Z,24.23
2022-10-28T14:22:33.141Z,24.28
2022-10-28T14:25:00.902Z,23.96
2022-10-28T14:27:57.392Z,22.79
2022-10-28T14:30:34.774Z,22.98
2022-10-28T14:33:22.333Z,22.92
2022-10-28T14:35:53.461Z,22.98
2022-10-28T14:38:31.673Z,22.36
2022-10-28T14:41:22.645Z,22.74
2022-10-28T14:44:01.960Z,22.64
2022-10-28T14:47:02.931Z,22.78
2022-10-28T14:49:35.640Z,22.64
2022-10-28T14:52:19.545Z,21.88
2022-10-28T14:54:55.738Z,22.04
2022-10-28T14:57:32.757Z,21.73
2022-10-28T15:00:08.854Z,21.31
2022-10-28T15:02:42.140Z,21.18
2022-10-28T15:05:20.612Z,20.94
2022-10-28T15:07:49.184Z,20.51
2022-10-28T15:10:38.266Z,20.00
2022-10-28T15:13:16.979Z,19.45
2022-10-28T15:15:53.514Z,18.82
2022-10-28T15:18:26.163Z,18.48
2022-10-28T15:21:16.691Z,18.18
2022-10-28T15:23:46.242Z,17.92
2022-10-28T15:26:16.973Z,17.74
2022-10-28T15:28:46.287Z,17.59
2022-10-28T15:31:22.701Z,17.58
2022-10-28T15:33:50.759Z,17.52
2022-10-28T15:36:31.888Z,17.43
2022-10-28T15:39:15.999Z,17.38
2022-10-28T15:41:45.722Z,17.28
2022-10-28T15:44:33.095Z,17.06
2022-10-28T15:47:15.722Z,16.91
2022-10-28T15:49:42.918Z,16.75
2022-10-28T15:52:37.405Z,16.71
2022-10-28T15:55:35.660Z,16.36
2022-10-28T15:58:19.116Z,16.21
2022-10-28T16:00:54.799Z,16.12
2022-10-28T16:06:04.418Z,16.13
2022-10-28T16:08:33.086Z,16.14
2022-10-28T16:11:04.447Z,16.01
2022-10-28T16:13:38.692Z,15.88
2022-10-28T16:16:33.094Z,15.78
2022-10-28T16:19:08.201Z,15.60
2022-10-28T16:21:38.402Z,15.43
2022-10-28T16:24:32.210Z,15.42
2022-10-28T16:27:22.464Z,15.32
2022-10-28T16:29:53.117Z,15.12
2022-10-28T16:32:26.755Z,15.10
2022-10-28T16:34:58.198Z,14.97
2022-10-28T16:37:55.346Z,14.93
2022-10-28T16:43:20.302Z,14.86
2022-10-28T16:45:55.665Z,14.81
2022-10-28T16:48:26.103Z,14.59
2022-10-28T16:51:13.386Z,14.41
2022-10-28T16:53:48.768Z,14.47
2022-10-28T16:56:17.965Z,14.54
2022-10-28T16:59:06.704Z,14.44
2022-10-28T17:01:34.855Z,14.36
2022-10-28T17:04:04.285Z,14.25
2022-10-28T17:06:37.618Z,14.27
2022-10-28T17:09:06.741Z,14.26
2022-10-28T17:11:35.395Z,14.30
2022-10-28T17:14:12.938Z,14.33
2022-10-28T17:16:43.324Z,14.17
2022-10-28T17:19:12.946Z,14.00
2022-10-28T17:21:44.548Z,13.86
2022-10-28T17:24:17.838Z,13.94
2022-10-28T17:26:56.427Z,13.86
2022-10-28T17:29:24.011Z,13.74
2022-10-28T17:31:59.214Z,13.64
2022-10-28T17:34:30.941Z,13.50
2022-10-28T17:37:00.518Z,13.42
2022-10-28T17:39:27.989Z,13.45
2022-10-28T17:42:08.639Z,13.34
2022-10-28T17:44:38.691Z,13.23
2022-10-28T17:47:06.981Z,13.27
2022-10-28T17:49:37.076Z,13.34
2022-10-28T17:52:06.797Z,13.31
2022-10-28T17:54:35.376Z,13.26
2022-10-28T17:57:33.919Z,13.10
2022-10-28T18:00:00.997Z,13.06
2022-10-28T18:02:30.400Z,12.93
2022-10-28T18:04:58.214Z,12.80
2022-10-28T18:07:59.702Z,12.88
2022-10-28T18:10:32.827Z,12.87
2022-10-28T18:13:01.094Z,12.80
2022-10-28T18:15:28.718Z,12.68
2022-10-28T18:17:57.237Z,12.69
2022-10-28T18:20:25.931Z,12.52
2022-10-28T18:23:04.860Z,12.43
2022-10-28T18:25:34.301Z,12.48
2022-10-28T18:28:07.857Z,12.37
2022-10-28T18:30:35.099Z,12.34
2022-10-28T18:33:04.548Z,12.27
2022-10-28T18:35:35.870Z,12.28
2022-10-28T18:38:04.299Z,12.29
2022-10-28T18:40:49.120Z,12.22
2022-10-28T18:43:18.486Z,12.16
2022-10-28T18:45:48.938Z,12.12
2022-10-28T18:48:18.797Z,12.07
2022-10-28T18:51:08.300Z,12.12
2022-10-28T18:53:38.306Z,12.04
2022-10-28T18:56:07.580Z,12.09
2022-10-28T18:58:43.806Z,12.12
2022-10-28T19:01:22.419Z,12.02
2022-10-28T19:04:08.111Z,11.88
2022-10-28T19:06:40.937Z,11.88
2022-10-28T19:09:10.151Z,11.89
2022-10-28T19:11:39.283Z,11.88
2022-10-28T19:14:07.113Z,11.85
2022-10-28T19:16:35.421Z,11.89
2022-10-28T19:19:05.342Z,11.90
2022-10-28T19:21:34.826Z,11.87
2022-10-28T19:24:17.625Z,11.82
2022-10-28T19:27:08.484Z,11.79
2022-10-28T19:29:49.497Z,11.78
2022-10-28T19:32:18.904Z,11.75
2022-10-28T19:34:50.696Z,11.73
2022-10-28T19:37:18.347Z,11.66
2022-10-28T19:39:45.481Z,11.71
2022-10-28T19:42:19.918Z,11.73
2022-10-28T19:44:48.161Z,11.65
2022-10-28T19:47:15.707Z,11.61
2022-10-28T19:49:44.935Z,11.66
2022-10-28T19:52:13.241Z,11.66
2022-10-28T19:54:44.699Z,11.66
2022-10-28T19:59:40.860Z,11.63
2022-10-28T20:02:08.333Z,11.53
2022-10-28T20:04:37.414Z,11.50
2022-10-28T20:07:04.692Z,11.51
2022-10-28T20:09:33.901Z,11.50
2022-10-28T20:12:02.545Z,11.49
2022-10-28T20:14:31.551Z,11.54
2022-10-28T20:17:06.249Z,11.52
2022-10-28T20:19:44.417Z,11.49
2022-10-28T20:22:12.357Z,11.46
2022-10-28T20:24:42.108Z,11.48
2022-10-28T20:27:11.456Z,11.30
2022-10-28T20:29:40.498Z,11.33
2022-10-28T20:32:09.902Z,11.37
2022-10-28T20:34:37.181Z,11.25
2022-10-28T20:37:10.181Z,11.26
2022-10-28T20:39:38.457Z,11.30
2022-10-28T20:42:05.711Z,11.31
2022-10-28T20:44:39.793Z,11.33
2022-10-28T20:47:18.127Z,11.32
2022-10-28T20:49:46.201Z,11.33
2022-10-28T20:52:16.745Z,11.35
2022-10-28T20:54:44.035Z,11.31
2022-10-28T20:57:15.143Z,11.27
2022-10-28T20:59:42.140Z,11.21
2022-10-28T21:02:10.115Z,11.35
2022-10-28T21:04:37.817Z,11.21
2022-10-28T21:07:43.170Z,11.35
2022-10-28T21:10:20.234Z,11.30
2022-10-28T21:12:53.238Z,11.20
2022-10-28T21:15:26.675Z,11.21
2022-10-28T21:17:58.120Z,11.20
2022-10-28T21:20:41.476Z,11.15
2022-10-28T21:23:22.879Z,11.14
2022-10-28T21:26:06.311Z,11.13
2022-10-28T21:28:43.747Z,11.17
2022-10-28T21:31:41.899Z,11.16
2022-10-28T21:34:09.945Z,11.08
2022-10-28T21:36:43.030Z,11.05
2022-10-28T21:39:23.474Z,11.14
2022-10-28T21:41:54.536Z,11.07
2022-10-28T21:44:27.357Z,11.06
2022-10-28T21:47:03.374Z,11.07
2022-10-28T21:49:37.131Z,11.06
2022-10-28T21:52:09.014Z,11.08
2022-10-28T21:54:43.404Z,11.13
2022-10-28T21:57:10.544Z,11.15
2022-10-28T21:59:38.374Z,11.21
2022-10-28T22:02:05.515Z,11.13
2022-10-28T22:04:41.960Z,11.09
2022-10-28T22:07:20.101Z,11.14
2022-10-28T22:09:54.916Z,11.16
2022-10-28T22:12:35.858Z,11.13
2022-10-28T22:15:04.150Z,11.18
2022-10-28T22:17:40.418Z,11.16
2022-10-28T22:20:11.089Z,11.08
2022-10-28T22:22:52.911Z,11.16
2022-10-28T22:25:21.105Z,11.14
2022-10-28T22:27:48.031Z,11.07
2022-10-28T22:30:15.209Z,11.08
2022-10-28T22:32:42.119Z,11.10
2022-10-28T22:35:17.270Z,11.10
2022-10-28T22:37:45.248Z,11.08
2022-10-28T22:40:12.618Z,11.10
2022-10-28T22:42:40.704Z,11.06
2022-10-28T22:45:09.679Z,11.08
2022-10-28T22:47:38.624Z,11.13
2022-10-28T22:50:06.206Z,11.16
2022-10-28T22:52:33.139Z,11.14
2022-10-28T22:55:00.384Z,11.14
2022-10-28T22:57:32.296Z,11.16
2022-10-28T22:59:59.274Z,11.07
2022-10-28T23:02:26.480Z,11.07
2022-10-28T23:04:59.619Z,11.08
2022-10-28T23:07:32.828Z,11.03
2022-10-28T23:10:00.888Z,10.98
2022-10-28T23:12:43.104Z,11.06
2022-10-28T23:15:25.877Z,11.05
2022-10-28T23:17:56.034Z,11.12
2022-10-28T23:20:30.599Z,11.12
2022-10-28T23:26:38.354Z,11.15
2022-10-28T23:29:17.174Z,11.21
2022-10-28T23:32:06.957Z,11.26
2022-10-28T23:34:40.165Z,11.23
2022-10-28T23:37:09.166Z,11.20
2022-10-28T23:39:38.139Z,11.22
2022-10-28T23:42:07.146Z,11.29
2022-10-28T23:44:48.309Z,11.19
2022-10-28T23:47:41.699Z,11.13
2022-10-28T23:50:25.265Z,11.11
2022-10-28T23:53:00.345Z,11.18
2022-10-28T23:55:39.557Z,11.23
2022-10-28T23:58:08.918Z,11.25
